Time;durP1;ratioP1;P1;durP2;ratioP2;P2;SDS_P1;SDS_P2;PMS_P1;PMS_P2;Temp;Humidity;BMP_temperature;BMP_pressure;BME280_temperature;BME280_humidity;BME280_pressure;Samples;Min_cycle;Max_cycle;Signal;HPM_P1;HPM_P2
2023/02/18 00:01:29;;;;;;;26.45;3.17;;;6.80;99.90;;;;;;6216472;23;20008;-81
2023/02/18 00:03:55;;;;;;;17.08;3.13;;;6.90;99.90;;;;;;6217623;23;20016;-82
2023/02/18 00:06:28;;;;;;;26.65;3.40;;;7.10;99.90;;;;;;6216123;23;20344;-80
2023/02/18 00:08:53;;;;;;;22.27;3.30;;;7.10;99.90;;;;;;6196996;23;20338;-80
2023/02/18 00:11:20;;;;;;;27.27;3.95;;;7.20;99.90;;;;;;6215578;23;20012;-81
2023/02/18 00:13:55;;;;;;;23.23;3.45;;;7.20;99.90;;;;;;6243749;23;20062;-84
2023/02/18 00:16:22;;;;;;;28.33;3.90;;;6.90;99.90;;;;;;6214903;23;20082;-81
2023/02/18 00:18:48;;;;;;;31.20;3.35;;;7.00;99.90;;;;;;6220042;23;20022;-84
2023/02/18 00:21:14;;;;;;;19.45;2.95;;;7.00;99.90;;;;;;6219584;23;20031;-80
2023/02/18 00:23:42;;;;;;;26.20;4.00;;;7.20;99.90;;;;;;6221294;23;20096;-81
2023/02/18 00:26:11;;;;;;;21.85;3.22;;;6.90;99.90;;;;;;6227431;23;20111;-82
2023/02/18 00:28:37;;;;;;;21.92;3.45;;;7.20;99.90;;;;;;6193884;23;20027;-84
2023/02/18 00:31:15;;;;;;;29.05;3.75;;;7.00;99.90;;;;;;6215974;23;20019;-81
2023/02/18 00:33:41;;;;;;;26.80;4.10;;;6.90;99.90;;;;;;6217679;23;20344;-83
2023/02/18 00:36:10;;;;;;;20.85;3.28;;;7.00;99.90;;;;;;6217376;23;20274;-82
2023/02/18 00:38:36;;;;;;;21.85;3.10;;;6.90;99.90;;;;;;6215734;23;20020;-81
2023/02/18 00:41:02;;;;;;;21.40;3.38;;;7.00;99.90;;;;;;6191314;23;20336;-85
2023/02/18 00:43:28;;;;;;;20.88;2.90;;;6.80;99.90;;;;;;6190637;23;20012;-81
2023/02/18 00:45:53;;;;;;;21.90;3.60;;;7.10;99.90;;;;;;6188192;23;20019;-80
2023/02/18 00:48:19;;;;;;;26.00;4.03;;;6.90;99.90;;;;;;6190773;23;20058;-82
2023/02/18 00:50:45;;;;;;;24.77;3.70;;;6.80;99.90;;;;;;6215361;23;20462;-81
2023/02/18 00:53:12;;;;;;;24.63;3.88;;;6.70;99.90;;;;;;6189163;23;20093;-83
2023/02/18 00:55:43;;;;;;;22.60;3.67;;;6.60;99.90;;;;;;6190218;23;20083;-84
2023/02/18 00:58:10;;;;;;;30.00;3.80;;;6.80;99.90;;;;;;6215178;23;20009;-82
2023/02/18 01:00:36;;;;;;;25.92;3.67;;;6.80;99.90;;;;;;6191032;23;20382;-82
2023/02/18 01:03:02;;;;;;;35.78;4.47;;;6.70;99.90;;;;;;6216136;23;20008;-79
2023/02/18 01:05:28;;;;;;;27.38;4.22;;;6.50;99.90;;;;;;6191358;23;20078;-80
2023/02/18 01:07:54;;;;;;;24.67;3.33;;;6.50;99.90;;;;;;6189792;23;20016;-86
2023/02/18 01:10:20;;;;;;;27.90;3.83;;;6.40;99.90;;;;;;6216341;23;20020;-83
2023/02/18 01:12:45;;;;;;;18.05;3.33;;;6.40;99.90;;;;;;6188841;23;20048;-82
2023/02/18 01:15:13;;;;;;;17.85;2.88;;;6.60;99.90;;;;;;6192051;23;20381;-84
2023/02/18 01:17:39;;;;;;;20.73;3.10;;;6.70;99.90;;;;;;6192029;23;20008;-83
2023/02/18 01:20:05;;;;;;;27.05;4.00;;;6.70;99.90;;;;;;6192178;23;20455;-83
2023/02/18 01:22:31;;;;;;;19.63;3.60;;;6.50;99.90;;;;;;6191094;23;20028;-83
2023/02/18 01:24:57;;;;;;;20.40;3.60;;;6.70;99.90;;;;;;6191772;23;20070;-82
2023/02/18 01:27:22;;;;;;;24.17;3.85;;;6.80;99.90;;;;;;6217110;23;20034;-82
2023/02/18 01:29:48;;;;;;;23.67;3.60;;;6.60;99.90;;;;;;6216025;23;20024;-82
2023/02/18 01:32:14;;;;;;;23.27;3.70;;;6.60;99.90;;;;;;6190063;23;20019;-83
2023/02/18 01:34:39;;;;;;;23.77;3.47;;;6.70;99.90;;;;;;6216760;23;20020;-82
2023/02/18 01:37:05;;;;;;;22.88;4.15;;;6.90;99.90;;;;;;6191464;23;20031;-83
2023/02/18 01:39:31;;;;;;;21.98;3.47;;;7.00;99.90;;;;;;6191315;23;20074;-83
2023/02/18 01:41:56;;;;;;;27.40;3.95;;;7.00;99.90;;;;;;6214707;23;20451;-82
2023/02/18 01:44:26;;;;;;;23.83;3.40;;;6.70;99.90;;;;;;6216382;23;20024;-81
2023/02/18 01:46:52;;;;;;;25.30;4.00;;;7.00;99.90;;;;;;6191209;23;20012;-84
2023/02/18 01:49:24;;;;;;;18.52;4.10;;;6.90;99.90;;;;;;6191443;23;20100;-85
2023/02/18 01:51:54;;;;;;;23.25;3.58;;;7.00;99.90;;;;;;6190160;23;20309;-81
2023/02/18 01:54:28;;;;;;;23.50;3.95;;;7.10;99.90;;;;;;6217229;23;20016;-84
2023/02/18 01:57:00;;;;;;;31.65;4.38;;;7.00;99.90;;;;;;6218047;23;20452;-84
2023/02/18 01:59:32;;;;;;;21.48;3.88;;;7.00;99.90;;;;;;6217112;23;20310;-82
2023/02/18 02:01:58;;;;;;;23.75;4.00;;;7.10;99.90;;;;;;6215661;23;20012;-85
2023/02/18 02:04:24;;;;;;;30.50;4.60;;;6.90;99.90;;;;;;6217499;23;20028;-84
2023/02/18 02:06:50;;;;;;;23.70;4.13;;;7.10;99.90;;;;;;6192133;23;20069;-82
2023/02/18 02:09:18;;;;;;;23.20;3.78;;;7.20;99.90;;;;;;6217614;23;20513;-82
2023/02/18 02:12:25;;;;;;;19.88;3.58;;;7.10;99.90;;;;;;6191174;23;20023;-85
2023/02/18 02:15:02;;;;;;;18.48;3.55;;;7.20;99.90;;;;;;6068467;23;20106;-81
2023/02/18 02:17:54;;;;;;;26.10;3.85;;;6.90;99.90;;;;;;6067680;23;20014;-79
2023/02/18 02:20:22;;;;;;;25.48;3.72;;;7.00;99.90;;;;;;6045557;23;20019;-84
2023/02/18 02:23:13;;;;;;;21.95;3.95;;;7.20;99.90;;;;;;6044321;23;20472;-80
2023/02/18 02:25:50;;;;;;;33.47;4.30;;;7.30;99.90;;;;;;6044361;23;20355;-84
2023/02/18 02:28:53;;;;;;;22.42;4.07;;;7.30;99.90;;;;;;6045579;23;20018;-83
2023/02/18 02:31:22;;;;;;;26.98;4.50;;;7.00;99.90;;;;;;6068448;23;20133;-84
2023/02/18 02:34:02;;;;;;;30.73;4.82;;;7.30;99.90;;;;;;6044988;23;20085;-83
2023/02/18 02:40:35;;;;;;;26.85;4.22;;;7.00;99.90;;;;;;6093325;23;20029;-85
2023/02/18 02:43:07;;;;;;;19.52;4.63;;;7.10;99.90;;;;;;6044609;23;20022;-82
2023/02/18 02:45:45;;;;;;;22.13;4.25;;;7.10;99.90;;;;;;6113588;23;20420;-83
2023/02/18 02:48:32;;;;;;;22.77;4.45;;;7.00;99.90;;;;;;6217236;23;20443;-81
2023/02/18 02:51:32;;;;;;;23.83;4.80;;;7.20;99.90;;;;;;6192802;23;20341;-82
2023/02/18 02:54:21;;;;;;;26.17;4.43;;;7.30;99.90;;;;;;6043977;23;20462;-80
2023/02/18 02:56:48;;;;;;;23.63;4.47;;;7.10;99.90;;;;;;6044068;23;20073;-83
2023/02/18 02:59:24;;;;;;;27.42;4.38;;;7.00;99.90;;;;;;6068583;23;20050;-83
2023/02/18 03:02:10;;;;;;;22.52;4.85;;;7.00;99.90;;;;;;6043908;23;20018;-82
2023/02/18 03:04:36;;;;;;;27.35;4.53;;;7.40;99.90;;;;;;6043927;23;20077;-82
2023/02/18 03:07:07;;;;;;;25.48;4.43;;;7.30;99.90;;;;;;6067365;23;20451;-85
2023/02/18 03:09:59;;;;;;;24.00;4.65;;;7.40;99.90;;;;;;6068633;23;20108;-83
2023/02/18 03:12:44;;;;;;;19.20;4.68;;;7.10;99.90;;;;;;6062381;23;20451;-83
2023/02/18 03:15:31;;;;;;;23.55;4.75;;;7.20;99.90;;;;;;6044524;23;20014;-84
2023/02/18 03:18:02;;;;;;;18.00;4.60;;;7.10;99.90;;;;;;6066535;23;20066;-83
2023/02/18 03:20:35;;;;;;;22.58;4.30;;;7.50;99.90;;;;;;6044769;23;20134;-84
2023/02/18 03:23:06;;;;;;;24.02;4.57;;;7.40;99.90;;;;;;6041618;23;20058;-81
2023/02/18 03:25:33;;;;;;;26.63;4.88;;;7.40;99.90;;;;;;6065328;23;20126;-85
2023/02/18 03:28:04;;;;;;;24.02;4.50;;;7.70;99.90;;;;;;6066394;23;20046;-83
2023/02/18 03:30:35;;;;;;;25.88;4.70;;;7.20;99.90;;;;;;6110893;23;20008;-85
2023/02/18 03:33:08;;;;;;;15.55;4.18;;;7.30;99.90;;;;;;6187163;23;20023;-83
2023/02/18 03:35:35;;;;;;;24.17;4.57;;;7.30;99.90;;;;;;6189599;23;20082;-83
2023/02/18 03:38:17;;;;;;;21.45;4.82;;;7.40;99.90;;;;;;6213825;23;20061;-82
2023/02/18 03:40:43;;;;;;;23.42;5.03;;;7.30;99.90;;;;;;6213757;23;20336;-83
2023/02/18 03:43:09;;;;;;;23.80;4.72;;;7.50;99.90;;;;;;6215810;23;20031;-83
2023/02/18 03:45:35;;;;;;;21.55;5.22;;;7.60;99.90;;;;;;6189655;23;20060;-83
2023/02/18 03:48:00;;;;;;;26.40;5.53;;;7.20;99.90;;;;;;6216609;23;20022;-83
2023/02/18 03:50:26;;;;;;;28.58;5.28;;;7.40;99.90;;;;;;6214434;23;20012;-83
2023/02/18 03:52:51;;;;;;;24.50;5.30;;;7.40;99.90;;;;;;6214806;23;20043;-81
2023/02/18 03:55:17;;;;;;;29.73;5.93;;;7.50;99.90;;;;;;6189807;23;20009;-84
2023/02/18 03:57:43;;;;;;;16.85;5.10;;;7.60;99.90;;;;;;6216181;23;20378;-83
2023/02/18 04:00:10;;;;;;;20.08;5.43;;;7.30;99.90;;;;;;6215761;23;20044;-82
2023/02/18 04:02:36;;;;;;;25.20;5.65;;;7.30;99.90;;;;;;6191531;23;20317;-82
2023/02/18 04:05:02;;;;;;;24.17;5.88;;;7.40;99.90;;;;;;6214901;23;20334;-83
2023/02/18 04:07:27;;;;;;;21.45;5.10;;;7.30;99.90;;;;;;6220538;23;20125;-84
2023/02/18 04:09:53;;;;;;;21.45;5.60;;;7.70;99.90;;;;;;6214924;23;20391;-84
2023/02/18 04:12:19;;;;;;;22.63;5.47;;;7.60;99.90;;;;;;6215425;23;20039;-82
2023/02/18 04:14:44;;;;;;;25.33;5.68;;;7.70;99.90;;;;;;6190217;23;20046;-85
2023/02/18 04:17:10;;;;;;;21.00;5.68;;;7.30;99.90;;;;;;6216105;23;20046;-81
2023/02/18 04:19:36;;;;;;;23.88;5.65;;;7.50;99.90;;;;;;6215097;23;20054;-81
2023/02/18 04:22:02;;;;;;;25.23;5.47;;;7.70;99.90;;;;;;6189587;23;20016;-85
2023/02/18 04:24:27;;;;;;;23.40;6.15;;;7.30;99.90;;;;;;6214914;23;20499;-82
2023/02/18 04:26:53;;;;;;;23.13;6.20;;;7.70;99.90;;;;;;6217975;23;20070;-83
2023/02/18 04:29:19;;;;;;;29.88;6.53;;;7.30;99.90;;;;;;6214142;23;20413;-84
2023/02/18 04:31:44;;;;;;;24.63;6.15;;;7.20;99.90;;;;;;6213927;23;20400;-82
2023/02/18 04:34:10;;;;;;;20.60;5.80;;;7.70;99.90;;;;;;6214185;23;20004;-83
2023/02/18 04:36:36;;;;;;;26.55;5.93;;;7.50;99.90;;;;;;6241300;23;20016;-80
2023/02/18 04:39:01;;;;;;;25.40;5.93;;;7.50;99.90;;;;;;6187469;23;20441;-83
2023/02/18 04:41:27;;;;;;;22.38;5.72;;;7.30;99.90;;;;;;6188811;23;20012;-81
2023/02/18 04:43:53;;;;;;;27.00;6.97;;;7.70;99.90;;;;;;6213828;23;20023;-83
2023/02/18 04:46:18;;;;;;;25.05;6.88;;;7.70;99.90;;;;;;6214654;23;20429;-84
2023/02/18 04:48:47;;;;;;;28.10;7.22;;;7.40;99.90;;;;;;6216136;23;20065;-84
2023/02/18 04:54:54;;;;;;;29.70;8.35;;;7.30;99.90;;;;;;6243226;23;20065;-85
2023/02/18 04:57:19;;;;;;;32.83;9.80;;;7.30;99.90;;;;;;6191592;23;20031;-84
2023/02/18 04:59:45;;;;;;;34.92;11.60;;;7.40;99.90;;;;;;6194120;23;20020;-82
2023/02/18 05:02:10;;;;;;;43.25;12.95;;;7.40;99.90;;;;;;6205168;23;20266;-81
2023/02/18 05:04:36;;;;;;;40.13;13.13;;;7.90;99.90;;;;;;6216521;23;20081;-84
2023/02/18 05:07:02;;;;;;;41.55;14.57;;;7.70;99.90;;;;;;6191427;23;20039;-82
2023/02/18 05:09:27;;;;;;;41.53;15.93;;;7.90;99.90;;;;;;6243641;23;20012;-84
2023/02/18 05:11:53;;;;;;;55.33;18.63;;;7.50;99.90;;;;;;6216020;23;20016;-83
2023/02/18 05:14:19;;;;;;;45.42;18.42;;;7.90;99.90;;;;;;6190011;23;20019;-83
2023/02/18 05:16:45;;;;;;;58.83;21.40;;;7.60;99.90;;;;;;6216467;23;20059;-83
2023/02/18 05:19:14;;;;;;;60.83;24.08;;;7.70;99.90;;;;;;6191505;23;20012;-85
2023/02/18 05:21:40;;;;;;;63.20;24.58;;;7.60;99.90;;;;;;6215972;23;20016;-83
2023/02/18 05:24:07;;;;;;;63.80;25.85;;;7.90;99.90;;;;;;6190196;23;20394;-82
2023/02/18 05:26:33;;;;;;;66.75;26.40;;;8.00;99.90;;;;;;6191344;23;20035;-85
2023/02/18 05:28:59;;;;;;;69.78;29.35;;;7.70;99.90;;;;;;6244162;23;20037;-85
2023/02/18 05:31:24;;;;;;;81.63;30.88;;;7.70;99.90;;;;;;6192369;23;20026;-83
2023/02/18 05:33:50;;;;;;;86.50;32.40;;;7.80;99.90;;;;;;6217924;23;20084;-81
2023/02/18 05:36:16;;;;;;;83.82;30.50;;;8.30;99.90;;;;;;6193122;23;20023;-85
2023/02/18 05:38:41;;;;;;;80.93;32.75;;;8.20;99.90;;;;;;6192423;23;20016;-83
2023/02/18 05:41:07;;;;;;;80.13;32.92;;;8.40;99.90;;;;;;6244567;23;20309;-81
2023/02/18 05:44:29;;;;;;;76.65;32.45;;;7.90;99.90;;;;;;6192715;23;20008;-85
2023/02/18 05:46:21;;;;;;;69.13;30.05;;;7.90;99.90;;;;;;6217023;23;20099;-85
2023/02/18 05:48:47;;;;;;;70.38;28.48;;;8.50;99.90;;;;;;6216290;23;20094;-83
2023/02/18 05:51:13;;;;;;;59.42;28.30;;;7.90;99.90;;;;;;6192680;23;20016;-81
2023/02/18 05:53:39;;;;;;;60.83;25.67;;;8.10;99.90;;;;;;6192863;23;20016;-81
2023/02/18 05:56:06;;;;;;;55.92;25.25;;;8.40;99.90;;;;;;6218835;23;20502;-81
2023/02/18 05:58:31;;;;;;;50.38;22.67;;;8.10;99.90;;;;;;6193207;23;20024;-81
2023/02/18 06:00:57;;;;;;;54.47;23.50;;;8.40;99.90;;;;;;6191619;23;20278;-84
2023/02/18 06:03:22;;;;;;;47.28;22.77;;;8.40;99.90;;;;;;6217455;23;20095;-84
2023/02/18 06:05:49;;;;;;;46.83;21.90;;;8.30;99.90;;;;;;6192898;23;20011;-82
2023/02/18 06:08:15;;;;;;;52.28;22.95;;;8.30;99.90;;;;;;6192364;23;20047;-84
2023/02/18 06:10:41;;;;;;;47.53;21.90;;;8.70;99.90;;;;;;6193434;23;20020;-82
2023/02/18 06:13:07;;;;;;;51.42;22.10;;;8.40;99.90;;;;;;6193006;23;20016;-83
2023/02/18 06:15:32;;;;;;;53.22;22.80;;;8.60;99.90;;;;;;6217000;23;20012;-82
2023/02/18 06:17:58;;;;;;;56.85;23.77;;;8.50;99.90;;;;;;6217862;23;20012;-81
2023/02/18 06:20:24;;;;;;;54.55;22.02;;;9.10;99.90;;;;;;6218046;23;20008;-83
2023/02/18 06:22:49;;;;;;;45.25;19.70;;;8.50;99.90;;;;;;6192434;23;20463;-83
2023/02/18 06:25:15;;;;;;;52.13;20.30;;;8.70;99.90;;;;;;6193451;23;20125;-81
2023/02/18 06:27:41;;;;;;;47.03;19.50;;;8.60;99.90;;;;;;6218153;23;20024;-84
2023/02/18 06:30:07;;;;;;;46.10;19.23;;;9.00;99.90;;;;;;6245479;23;20044;-83
2023/02/18 06:32:33;;;;;;;39.13;17.63;;;8.70;99.90;;;;;;6216968;23;20109;-84
2023/02/18 06:34:59;;;;;;;38.35;16.20;;;8.70;99.90;;;;;;6218112;23;20008;-85
2023/02/18 06:37:24;;;;;;;37.60;15.50;;;8.80;99.90;;;;;;6192518;23;20134;-82
2023/02/18 06:39:50;;;;;;;33.30;14.32;;;9.20;99.90;;;;;;6192162;23;20295;-82
2023/02/18 06:42:16;;;;;;;32.20;13.85;;;9.10;99.90;;;;;;6218196;23;20046;-80
2023/02/18 06:44:41;;;;;;;30.38;13.30;;;8.80;99.90;;;;;;6217988;23;20343;-84
2023/02/18 06:47:07;;;;;;;32.75;13.70;;;9.50;99.90;;;;;;6244541;23;20047;-82
2023/02/18 06:49:33;;;;;;;28.05;12.95;;;9.40;99.90;;;;;;6192302;23;20012;-83
2023/02/18 06:51:58;;;;;;;30.98;13.73;;;9.00;99.90;;;;;;6191642;23;20458;-81
2023/02/18 06:54:24;;;;;;;29.15;14.32;;;9.40;99.90;;;;;;6216996;23;20047;-83
2023/02/18 06:56:50;;;;;;;27.88;13.57;;;9.50;99.90;;;;;;6191902;23;20019;-83
2023/02/18 06:59:15;;;;;;;27.95;14.43;;;9.10;99.90;;;;;;6190802;23;20012;-82
2023/02/18 07:01:41;;;;;;;33.22;14.25;;;9.40;99.90;;;;;;6215020;23;20078;-83
2023/02/18 07:04:10;;;;;;;34.83;15.57;;;9.20;99.90;;;;;;6244188;23;20019;-86
2023/02/18 07:06:35;;;;;;;30.42;16.35;;;9.00;99.90;;;;;;6242691;23;20009;-86
2023/02/18 07:09:01;;;;;;;41.42;20.15;;;9.30;99.90;;;;;;6191721;23;20047;-84
2023/02/18 07:11:27;;;;;;;43.88;20.52;;;9.30;99.90;;;;;;6216181;23;20024;-81
2023/02/18 07:13:52;;;;;;;47.03;22.33;;;9.50;99.90;;;;;;6218142;23;20019;-82
2023/02/18 07:16:18;;;;;;;43.97;21.52;;;9.70;99.90;;;;;;6191791;23;20016;-83
2023/02/18 07:18:45;;;;;;;50.13;22.02;;;9.90;99.90;;;;;;6216594;23;20091;-82
2023/02/18 07:21:10;;;;;;;46.92;23.27;;;9.70;99.90;;;;;;6213933;23;20087;-84
2023/02/18 07:23:37;;;;;;;47.90;22.73;;;10.00;99.90;;;;;;6215758;23;20083;-82
2023/02/18 07:26:20;;;;;;;48.70;21.13;;;9.40;99.90;;;;;;6215008;23;20073;-82
2023/02/18 07:28:46;;;;;;;47.83;21.27;;;9.50;99.90;;;;;;6189823;23;20012;-83
2023/02/18 07:31:12;;;;;;;40.35;20.00;;;9.70;99.90;;;;;;6189501;23;20469;-85
2023/02/18 07:33:38;;;;;;;44.47;18.83;;;10.10;99.90;;;;;;6189164;23;20008;-82
2023/02/18 07:36:04;;;;;;;35.03;18.40;;;9.50;99.90;;;;;;6214478;23;20012;-81
2023/02/18 07:38:30;;;;;;;36.60;18.08;;;9.70;99.90;;;;;;6190455;23;20054;-84
2023/02/18 07:40:57;;;;;;;34.88;18.35;;;9.50;99.90;;;;;;6192053;23;20501;-82
2023/02/18 07:43:23;;;;;;;37.28;16.75;;;9.70;99.90;;;;;;6215823;23;20016;-81
2023/02/18 07:45:49;;;;;;;27.92;14.57;;;10.20;99.90;;;;;;6190401;23;20022;-79
2023/02/18 07:48:16;;;;;;;29.80;15.70;;;9.80;99.90;;;;;;6213514;23;20016;-81
2023/02/18 07:50:43;;;;;;;33.20;15.75;;;9.80;99.90;;;;;;6188649;23;20344;-82
2023/02/18 07:53:10;;;;;;;34.72;14.50;;;10.10;99.90;;;;;;6211695;23;20118;-82
2023/02/18 07:55:48;;;;;;;35.08;15.20;;;9.70;99.90;;;;;;6193359;23;20041;-79
2023/02/18 07:58:19;;;;;;;30.33;14.40;;;9.80;99.90;;;;;;6188476;23;20012;-79
2023/02/18 08:00:46;;;;;;;37.10;15.20;;;10.30;99.90;;;;;;6189303;23;20020;-79
2023/02/18 08:03:13;;;;;;;26.70;13.25;;;9.60;99.90;;;;;;6212459;23;20016;-80
2023/02/18 08:05:39;;;;;;;23.90;11.25;;;9.60;99.90;;;;;;6188351;23;20768;-79
2023/02/18 08:08:04;;;;;;;20.92;10.27;;;10.30;99.90;;;;;;6214121;23;20027;-80
2023/02/18 08:10:30;;;;;;;28.20;11.93;;;10.30;99.90;;;;;;6213383;23;20175;-79
2023/02/18 08:12:56;;;;;;;24.75;11.07;;;9.60;99.90;;;;;;6188958;23;20016;-81
2023/02/18 08:15:22;;;;;;;23.75;11.77;;;9.80;99.90;;;;;;6194039;23;20099;-79
2023/02/18 08:17:47;;;;;;;21.08;9.65;;;10.20;99.90;;;;;;6191010;23;20059;-79
2023/02/18 08:20:13;;;;;;;20.90;9.20;;;10.00;99.90;;;;;;6215683;23;20012;-80
2023/02/18 08:22:39;;;;;;;22.77;7.65;;;9.70;99.90;;;;;;6190909;23;20035;-80
2023/02/18 08:25:05;;;;;;;27.52;8.77;;;9.80;99.90;;;;;;6215493;23;20078;-82
2023/02/18 08:27:31;;;;;;;20.65;8.00;;;9.60;99.90;;;;;;6212047;23;20019;-82
2023/02/18 08:29:57;;;;;;;19.77;7.35;;;9.90;99.90;;;;;;6188274;23;20023;-81
2023/02/18 08:32:27;;;;;;;33.30;7.70;;;10.20;99.90;;;;;;6187073;23;20114;-80
2023/02/18 08:34:53;;;;;;;21.25;6.25;;;9.60;99.90;;;;;;6211960;23;20012;-80
2023/02/18 08:37:19;;;;;;;16.67;5.22;;;9.50;99.90;;;;;;6185734;23;20012;-83
2023/02/18 08:39:44;;;;;;;22.05;5.63;;;10.00;99.90;;;;;;6211077;23;20008;-81
2023/02/18 08:42:10;;;;;;;19.17;4.93;;;9.90;99.90;;;;;;6187844;23;20092;-79
2023/02/18 08:44:35;;;;;;;24.23;5.75;;;9.90;99.90;;;;;;6213154;23;20090;-78
2023/02/18 08:47:01;;;;;;;21.67;4.97;;;9.80;99.90;;;;;;6188358;23;20402;-82
2023/02/18 08:49:27;;;;;;;26.70;5.47;;;10.10;99.90;;;;;;6191775;23;20018;-80
2023/02/18 08:51:53;;;;;;;19.83;5.13;;;10.00;99.90;;;;;;6214861;23;20016;-80
2023/02/18 08:54:19;;;;;;;18.65;5.00;;;9.80;99.90;;;;;;6213372;23;20023;-79
2023/02/18 08:56:44;;;;;;;18.23;5.15;;;9.50;99.90;;;;;;6213010;23;20042;-82
2023/02/18 08:59:10;;;;;;;21.27;4.90;;;10.00;99.90;;;;;;6214917;23;20012;-80
2023/02/18 09:01:36;;;;;;;16.45;4.68;;;9.20;99.90;;;;;;6214398;23;20603;-82
2023/02/18 09:04:02;;;;;;;18.33;5.43;;;9.50;99.90;;;;;;6217860;23;20020;-81
2023/02/18 09:06:28;;;;;;;18.90;5.10;;;9.90;99.90;;;;;;6191503;23;20015;-80
2023/02/18 09:08:53;;;;;;;16.83;4.32;;;9.50;99.90;;;;;;6216179;23;20020;-80
2023/02/18 09:11:19;;;;;;;16.48;4.25;;;9.40;99.90;;;;;;6191851;23;20403;-82
2023/02/18 09:13:45;;;;;;;20.48;4.80;;;9.80;99.90;;;;;;6218681;23;20146;-80
2023/02/18 09:16:17;;;;;;;18.80;4.55;;;9.40;99.90;;;;;;6217739;23;20016;-82
2023/02/18 09:18:43;;;;;;;17.88;4.53;;;9.90;99.90;;;;;;6216407;23;20008;-82
2023/02/18 09:21:12;;;;;;;19.80;4.97;;;9.70;99.90;;;;;;6191105;23;20047;-80
2023/02/18 09:23:38;;;;;;;22.33;5.18;;;9.40;99.90;;;;;;6189685;23;20016;-82
2023/02/18 09:26:06;;;;;;;19.73;4.53;;;9.80;99.90;;;;;;6190425;23;20013;-81
2023/02/18 09:28:32;;;;;;;21.33;4.68;;;10.00;99.90;;;;;;6192032;23;20024;-81
2023/02/18 09:31:02;;;;;;;19.90;5.28;;;9.50;99.90;;;;;;6217757;23;20012;-80
2023/02/18 09:33:27;;;;;;;23.58;5.03;;;9.70;99.90;;;;;;6216895;23;20051;-81
2023/02/18 09:35:53;;;;;;;19.83;4.43;;;9.30;99.90;;;;;;6193809;23;20011;-83
2023/02/18 09:38:19;;;;;;;23.42;4.63;;;9.70;99.90;;;;;;6191398;23;20008;-80
2023/02/18 09:40:50;;;;;;;21.63;4.93;;;9.70;99.90;;;;;;6191807;23;20012;-78
2023/02/18 09:43:25;;;;;;;15.63;4.22;;;9.90;99.90;;;;;;6192189;23;20047;-81
2023/02/18 09:45:52;;;;;;;16.08;3.75;;;9.50;99.90;;;;;;6193690;23;20024;-82
2023/02/18 09:48:19;;;;;;;14.60;3.75;;;9.70;99.90;;;;;;6191159;23;20012;-79
2023/02/18 09:50:52;;;;;;;19.52;3.90;;;9.60;99.90;;;;;;6216248;23;20020;-82
2023/02/18 09:53:17;;;;;;;20.65;3.90;;;9.80;99.90;;;;;;6166797;23;20024;-81
2023/02/18 09:55:45;;;;;;;14.30;3.60;;;10.20;99.90;;;;;;6193419;23;20070;-81
2023/02/18 09:58:10;;;;;;;17.33;3.70;;;10.20;99.90;;;;;;6192456;23;20047;-80
2023/02/18 10:00:40;;;;;;;23.52;3.72;;;10.20;99.90;;;;;;6217365;23;20019;-81
2023/02/18 10:03:14;;;;;;;17.98;4.00;;;9.60;99.90;;;;;;6215970;23;20012;-80
2023/02/18 10:05:49;;;;;;;20.27;4.00;;;10.10;99.90;;;;;;6192543;23;20016;-81
2023/02/18 10:08:28;;;;;;;19.42;3.30;;;10.10;99.90;;;;;;6190080;23;20050;-81
2023/02/18 10:10:54;;;;;;;21.90;3.42;;;10.20;99.90;;;;;;6166811;23;20737;-79
2023/02/18 10:13:27;;;;;;;23.10;3.45;;;9.90;99.90;;;;;;6192745;23;20012;-81
2023/02/18 10:15:52;;;;;;;21.35;3.05;;;10.30;99.90;;;;;;6217646;23;20044;-81
2023/02/18 10:18:55;;;;;;;19.95;2.92;;;9.90;99.90;;;;;;6190876;23;20012;-79
2023/02/18 10:21:26;;;;;;;32.80;3.30;;;10.30;99.90;;;;;;6135845;23;20008;-81
2023/02/18 10:23:54;;;;;;;21.45;3.17;;;10.10;99.90;;;;;;6192373;23;20289;-79
2023/02/18 10:26:20;;;;;;;13.82;2.60;;;10.00;99.90;;;;;;6217963;23;20040;-80
2023/02/18 10:28:46;;;;;;;20.85;3.63;;;10.30;99.90;;;;;;6217295;23;20015;-79
2023/02/18 10:31:19;;;;;;;19.40;2.92;;;10.00;99.90;;;;;;6214296;23;20649;-80
2023/02/18 10:33:50;;;;;;;27.33;3.95;;;10.40;99.90;;;;;;6217103;23;20485;-80
2023/02/18 10:36:40;;;;;;;16.48;2.90;;;10.60;99.90;;;;;;6217663;23;20369;-80
2023/02/18 10:39:24;;;;;;;21.48;3.47;;;10.40;99.90;;;;;;6190994;23;20027;-80
2023/02/18 10:42:18;;;;;;;19.00;3.10;;;10.50;99.90;;;;;;6217064;23;20016;-81
2023/02/18 10:44:44;;;;;;;26.65;3.58;;;10.50;99.90;;;;;;6191990;23;20016;-80
2023/02/18 10:47:39;;;;;;;22.77;3.47;;;10.60;99.90;;;;;;6217099;23;20024;-79
2023/02/18 10:50:28;;;;;;;24.70;3.97;;;10.30;99.90;;;;;;6189052;23;20028;-80
2023/02/18 10:52:58;;;;;;;16.92;3.72;;;10.50;99.90;;;;;;6190548;23;20400;-81
2023/02/18 10:55:59;;;;;;;21.65;3.55;;;10.50;99.90;;;;;;6191929;23;20039;-82
2023/02/18 10:58:35;;;;;;;21.45;3.40;;;10.90;99.90;;;;;;6041642;23;20120;-81
2023/02/18 11:01:07;;;;;;;26.00;4.00;;;10.70;99.90;;;;;;6063059;23;20018;-80
2023/02/18 11:03:42;;;;;;;20.48;3.20;;;10.70;99.90;;;;;;6063553;23;20105;-82
2023/02/18 11:06:21;;;;;;;;;;;10.90;99.90;;;;;;6041827;23;20018;-79
2023/02/18 11:08:48;;;;;;;23.65;3.70;;;10.90;99.90;;;;;;6067276;23;19924;-80
2023/02/18 11:11:33;;;;;;;18.38;3.83;;;10.70;99.90;;;;;;6043728;23;20057;-78
2023/02/18 11:14:05;;;;;;;16.92;2.95;;;10.80;99.90;;;;;;6041376;23;20092;-80
2023/02/18 11:16:39;;;;;;;15.02;2.67;;;10.90;99.90;;;;;;6066530;23;20015;-82
2023/02/18 11:19:35;;;;;;;20.40;3.58;;;10.80;99.90;;;;;;6066140;23;20010;-78
2023/02/18 11:22:16;;;;;;;24.35;3.40;;;10.80;99.90;;;;;;6042072;23;20022;-80
2023/02/18 11:24:47;;;;;;;16.35;3.20;;;11.20;99.90;;;;;;6013044;23;20038;-81
2023/02/18 11:27:35;;;;;;;18.25;3.03;;;11.20;99.90;;;;;;6035883;23;20117;-80
2023/02/18 11:30:15;;;;;;;15.05;3.47;;;10.90;99.90;;;;;;6022778;23;20033;-79
2023/02/18 11:32:41;;;;;;;16.08;2.90;;;10.90;99.90;;;;;;6011103;23;20026;-79
2023/02/18 11:35:20;;;;;;;14.18;3.40;;;11.20;99.90;;;;;;6154446;23;20675;-81
2023/02/18 11:37:46;;;;;;;18.08;3.35;;;10.90;99.90;;;;;;6183191;23;20012;-81
2023/02/18 11:40:34;;;;;;;19.27;3.47;;;10.90;99.90;;;;;;6182955;23;20040;-80
2023/02/18 11:43:16;;;;;;;16.48;3.55;;;11.20;99.90;;;;;;6183863;23;20236;-80
2023/02/18 11:45:42;;;;;;;22.35;3.13;;;11.10;99.90;;;;;;6155626;23;20055;-79
2023/02/18 11:48:17;;;;;;;18.85;3.97;;;11.30;99.90;;;;;;6182015;23;20017;-79
2023/02/18 11:50:44;;;;;;;22.45;3.30;;;11.10;99.90;;;;;;6182798;23;20366;-82
2023/02/18 11:53:27;;;;;;;25.55;3.47;;;11.20;99.90;;;;;;6182072;23;20017;-82
2023/02/18 11:56:00;;;;;;;17.38;2.67;;;11.20;99.90;;;;;;6157288;23;20044;-81
2023/02/18 11:58:32;;;;;;;15.10;3.13;;;11.10;99.90;;;;;;6182824;23;20051;-78
2023/02/18 12:01:02;;;;;;;16.58;3.15;;;11.40;99.90;;;;;;6161942;23;20009;-82
2023/02/18 12:03:31;;;;;;;17.05;3.10;;;11.30;99.90;;;;;;6161774;23;20075;-82
2023/02/18 12:06:02;;;;;;;17.48;3.42;;;11.50;99.90;;;;;;6197539;23;20437;-79
2023/02/18 12:08:36;;;;;;;17.85;3.95;;;11.50;99.90;;;;;;6162778;23;20017;-80
2023/02/18 12:11:09;;;;;;;;;;;11.50;99.90;;;;;;6186902;23;20012;-79
2023/02/18 12:13:41;;;;;;;23.27;3.47;;;11.40;99.90;;;;;;6183705;23;19923;-79
2023/02/18 12:16:19;;;;;;;18.90;3.75;;;11.60;99.90;;;;;;6182803;23;20013;-82
2023/02/18 12:19:00;;;;;;;14.50;2.53;;;11.40;99.90;;;;;;6162513;23;20012;-81
2023/02/18 12:22:03;;;;;;;17.55;3.25;;;11.60;99.90;;;;;;6162747;23;20042;-81
2023/02/18 12:24:56;;;;;;;14.95;3.47;;;11.50;99.90;;;;;;6213265;23;20155;-80
2023/02/18 12:27:35;;;;;;;16.10;3.03;;;11.40;99.90;;;;;;6191367;23;20020;-80
2023/02/18 12:30:18;;;;;;;18.67;3.00;;;11.50;99.90;;;;;;6216917;23;20497;-80
2023/02/18 12:32:58;;;;;;;23.42;3.47;;;11.60;99.90;;;;;;6190533;23;20020;-82
2023/02/18 12:35:48;;;;;;;17.65;3.10;;;11.70;99.90;;;;;;6190366;23;20016;-81
2023/02/18 12:38:16;;;;;;;18.75;3.40;;;11.70;99.90;;;;;;6216171;23;20012;-83
2023/02/18 12:41:09;;;;;;;25.02;3.80;;;11.60;99.90;;;;;;6217553;23;20243;-83
2023/02/18 12:44:05;;;;;;;19.80;3.33;;;11.50;99.90;;;;;;6217644;23;20023;-82
2023/02/18 12:46:40;;;;;;;15.07;3.30;;;11.50;99.90;;;;;;6232282;23;20456;-82
2023/02/18 12:49:29;;;;;;;24.52;3.83;;;11.80;99.90;;;;;;6209731;23;20016;-80
2023/02/18 12:52:16;;;;;;;15.98;3.10;;;11.60;99.90;;;;;;6218068;23;20073;-80
2023/02/18 12:55:16;;;;;;;22.67;3.63;;;11.50;99.90;;;;;;6190636;23;20020;-80
2023/02/18 12:57:48;;;;;;;18.50;3.00;;;11.60;99.90;;;;;;6188262;23;20012;-80
2023/02/18 13:00:48;;;;;;;15.82;2.67;;;11.50;99.90;;;;;;6188390;23;20008;-80
2023/02/18 13:03:37;;;;;;;18.20;2.92;;;11.30;99.90;;;;;;6212487;23;20020;-79
2023/02/18 13:06:06;;;;;;;21.00;2.97;;;11.70;99.90;;;;;;6216309;23;20417;-80
2023/02/18 13:08:59;;;;;;;18.48;3.70;;;11.60;99.90;;;;;;6191599;23;20020;-80